Time,TemperatureF,DewpointF,PressureIn,WindDirection,WindDirectionDegrees,WindSpeedMPH,WindSpeedGustMPH,Humidity,HourlyPrecipIn,Conditions,Clouds,dailyrainin,SoftwareType,DateUTC
2013-05-09 00:02:00,44.7,43.0,29.69,South,179,0.0,-999.0,94,-99.99,,,0.00,weatherlink.com 1.10,2013-05-09 07:02:00,
2013-05-09 00:17:00,45.6,44.0,29.69,South,178,0.0,-999.0,94,-99.99,,,0.00,weatherlink.com 1.10,2013-05-09 07:17:00,
2013-05-09 00:32:00,46.0,44.0,29.69,South,182,0.0,-999.0,94,-99.99,,,0.00,weatherlink.com 1.10,2013-05-09 07:32:00,
2013-05-09 00:47:00,46.7,45.0,29.69,South,172,0.0,-999.0,94,-99.99,,,0.00,weatherlink.com 1.10,2013-05-09 07:47:00,
2013-05-09 01:02:00,47.6,45.0,29.69,South,172,0.0,-999.0,90,-99.99,,,0.00,weatherlink.com 1.10,2013-05-09 08:02:00,
2013-05-09 01:17:00,48.6,44.0,29.69,South,173,0.0,-999.0,85,-99.99,,,0.00,weatherlink.com 1.10,2013-05-09 08:17:00,
2013-05-09 01:32:00,49.4,43.0,29.68,South,173,0.0,-999.0,79,-99.99,,,0.00,weatherlink.com 1.10,2013-05-09 08:32:00,
2013-05-09 01:47:00,49.9,42.0,29.68,South,176,0.0,-999.0,75,-99.99,,,0.00,weatherlink.com 1.10,2013-05-09 08:47:00,
2013-05-09 02:02:00,51.0,42.0,29.68,South,176,0.0,-999.0,70,-99.99,,,0.00,weatherlink.com 1.10,2013-05-09 09:02:00,
2013-05-09 02:17:00,52.1,41.0,29.68,South,176,0.0,-999.0,67,-99.99,,,0.00,weatherlink.com 1.10,2013-05-09 09:17:00,
2013-05-09 02:32:00,51.9,41.0,29.67,South,177,0.0,-999.0,66,-99.99,,,0.00,weatherlink.com 1.10,2013-05-09 09:32:00,
2013-05-09 02:47:00,51.9,40.0,29.68,South,184,0.0,-999.0,65,-99.99,,,0.00,weatherlink.com 1.10,2013-05-09 09:47:00,
2013-05-09 03:02:00,52.3,40.0,29.68,SSW,202,0.0,-999.0,63,-99.99,,,0.00,weatherlink.com 1.10,2013-05-09 10:02:00,
2013-05-09 03:17:00,50.9,41.0,29.68,SE,134,0.0,-999.0,68,-99.99,,,0.00,weatherlink.com 1.10,2013-05-09 10:17:00,
2013-05-09 03:32:00,50.8,39.0,29.67,SE,136,0.0,-999.0,65,-99.99,,,0.00,weatherlink.com 1.10,2013-05-09 10:32:00,
2013-05-09 03:47:00,50.1,39.0,29.66,South,178,2.0,-999.0,67,-99.99,,,0.00,weatherlink.com 1.10,2013-05-09 10:47:00,
2013-05-09 04:02:00,47.9,40.0,29.66,South,181,0.0,-999.0,74,-99.99,,,0.00,weatherlink.com 1.10,2013-05-09 11:02:00,
2013-05-09 04:17:00,47.7,40.0,29.67,South,181,0.0,-999.0,74,-99.99,,,0.00,weatherlink.com 1.10,2013-05-09 11:17:00,
2013-05-09 04:32:00,44.6,39.0,29.66,South,180,0.0,-999.0,81,-99.99,,,0.00,weatherlink.com 1.10,2013-05-09 11:32:00,
2013-05-09 04:47:00,43.6,41.0,29.66,SW,221,0.0,-999.0,89,-99.99,,,0.00,weatherlink.com 1.10,2013-05-09 11:47:00,
2013-05-09 05:02:00,43.9,42.0,29.66,South,190,0.0,-999.0,91,-99.99,,,0.00,weatherlink.com 1.10,2013-05-09 12:02:00,
2013-05-09 05:17:00,43.5,41.0,29.66,South,183,0.0,-999.0,91,-99.99,,,0.00,weatherlink.com 1.10,2013-05-09 12:17:00,
2013-05-09 05:32:00,43.3,41.0,29.66,West,259,0.0,-999.0,92,-99.99,,,0.00,weatherlink.com 1.10,2013-05-09 12:32:00,
2013-05-09 05:47:00,44.1,43.0,29.66,WNW,283,0.0,-999.0,94,-99.99,,,0.00,weatherlink.com 1.10,2013-05-09 12:47:00,
2013-05-09 06:02:00,45.0,43.0,29.66,NW,325,0.0,-999.0,94,-99.99,,,0.00,weatherlink.com 1.10,2013-05-09 13:02:00,
2013-05-09 06:17:00,45.3,44.0,29.66,WNW,296,0.0,-999.0,94,-99.99,,,0.00,weatherlink.com 1.10,2013-05-09 13:17:00,
2013-05-09 06:32:00,45.5,44.0,29.67,NW,323,0.0,-999.0,94,-99.99,,,0.00,weatherlink.com 1.10,2013-05-09 13:32:00,
2013-05-09 06:47:00,45.6,44.0,29.67,NW,323,0.0,-999.0,94,-99.99,,,0.00,weatherlink.com 1.10,2013-05-09 13:47:00,
2013-05-09 07:02:00,45.9,44.0,29.67,NW,319,0.0,-999.0,94,-99.99,,,0.00,weatherlink.com 1.10,2013-05-09 14:02:00,
2013-05-09 07:17:00,46.3,45.0,29.68,West,267,0.0,-999.0,95,-99.99,,,0.00,weatherlink.com 1.10,2013-05-09 14:17:00,
2013-05-09 07:32:00,46.3,45.0,29.69,West,263,0.0,-999.0,94,-99.99,,,0.00,weatherlink.com 1.10,2013-05-09 14:32:00,
2013-05-09 07:47:00,46.7,45.0,29.69,West,263,0.0,-999.0,95,-99.99,,,0.00,weatherlink.com 1.10,2013-05-09 14:47:00,
2013-05-09 08:02:00,46.9,46.0,29.70,WNW,283,0.0,-999.0,95,-99.99,,,0.00,weatherlink.com 1.10,2013-05-09 15:02:00,
2013-05-09 08:17:00,47.4,46.0,29.70,SW,226,0.0,-999.0,95,-99.99,,,0.00,weatherlink.com 1.10,2013-05-09 15:17:00,
2013-05-09 08:32:00,48.3,47.0,29.70,SSW,195,0.0,-999.0,95,-99.99,,,0.00,weatherlink.com 1.10,2013-05-09 15:32:00,
2013-05-09 08:47:00,48.9,48.0,29.70,NNW,342,0.0,-999.0,95,-99.99,,,0.00,weatherlink.com 1.10,2013-05-09 15:47:00,
2013-05-09 09:02:00,50.8,50.0,29.70,WNW,292,0.0,-999.0,96,-99.99,,,0.00,weatherlink.com 1.10,2013-05-09 16:02:00,
2013-05-09 09:17:00,52.1,50.0,29.71,NW,311,0.0,-999.0,93,-99.99,,,0.00,weatherlink.com 1.10,2013-05-09 16:17:00,
2013-05-09 09:32:00,51.7,49.0,29.70,North,355,0.0,-999.0,89,-99.99,,,0.00,weatherlink.com 1.10,2013-05-09 16:32:00,
2013-05-09 09:47:00,54.0,50.0,29.70,WNW,284,0.0,-999.0,87,-99.99,,,0.00,weatherlink.com 1.10,2013-05-09 16:47:00,
2013-05-09 10:02:00,55.9,51.0,29.71,NNE,17,0.0,-999.0,82,-99.99,,,0.00,weatherlink.com 1.10,2013-05-09 17:02:00,
2013-05-09 10:17:00,55.4,50.0,29.71,North,360,0.0,-999.0,82,-99.99,,,0.00,weatherlink.com 1.10,2013-05-09 17:17:00,
2013-05-09 10:32:00,56.6,51.0,29.71,NW,320,0.0,-999.0,82,-99.99,,,0.00,weatherlink.com 1.10,2013-05-09 17:32:00,
2013-05-09 10:47:00,58.2,51.0,29.71,WNW,283,3.0,-999.0,77,-99.99,,,0.00,weatherlink.com 1.10,2013-05-09 17:47:00,
2013-05-09 11:19:00,62.2,52.0,29.70,North,360,0.0,-999.0,70,-99.99,,,0.00,weatherlink.com 1.10,2013-05-09 18:19:00,
2013-05-09 11:33:00,62.2,51.0,29.70,North,360,0.0,-999.0,68,-99.99,,,0.00,weatherlink.com 1.10,2013-05-09 18:33:00,
2013-05-09 11:48:00,63.3,52.0,29.70,North,5,2.0,-999.0,66,-99.99,,,0.00,weatherlink.com 1.10,2013-05-09 18:48:00,
2013-05-09 12:03:00,63.0,52.0,29.70,NNE,25,2.0,-999.0,68,-99.99,,,0.00,weatherlink.com 1.10,2013-05-09 19:03:00,
2013-05-09 12:18:00,63.3,52.0,29.71,NNE,29,3.0,-999.0,67,-99.99,,,0.00,weatherlink.com 1.10,2013-05-09 19:18:00,
2013-05-09 12:33:00,64.2,53.0,29.70,NNW,337,5.0,-999.0,67,-99.99,,,0.00,weatherlink.com 1.10,2013-05-09 19:33:00,
2013-05-09 12:48:00,64.8,53.0,29.70,NNW,340,4.0,-999.0,66,-99.99,,,0.00,weatherlink.com 1.10,2013-05-09 19:48:00,
2013-05-09 13:03:00,65.0,52.0,29.70,North,5,0.0,-999.0,64,-99.99,,,0.00,weatherlink.com 1.10,2013-05-09 20:03:00,
2013-05-09 13:18:00,64.1,52.0,29.70,North,9,0.0,-999.0,65,-99.99,,,0.00,weatherlink.com 1.10,2013-05-09 20:18:00,
2013-05-09 13:33:00,64.1,52.0,29.70,NNW,329,1.0,-999.0,65,-99.99,,,0.00,weatherlink.com 1.10,2013-05-09 20:33:00,
2013-05-09 13:48:00,64.6,51.0,29.70,NNW,335,1.0,-999.0,62,-99.99,,,0.00,weatherlink.com 1.10,2013-05-09 20:48:00,
2013-05-09 14:03:00,64.1,52.0,29.70,North,360,7.0,-999.0,64,-99.99,,,0.00,weatherlink.com 1.10,2013-05-09 21:03:00,
2013-05-09 14:18:00,63.3,51.0,29.71,NNW,338,3.0,-999.0,65,-99.99,,,0.00,weatherlink.com 1.10,2013-05-09 21:18:00,
2013-05-09 14:33:00,62.8,51.0,29.71,NNW,344,0.0,-999.0,66,-99.99,,,0.00,weatherlink.com 1.10,2013-05-09 21:33:00,
2013-05-09 14:48:00,63.5,51.0,29.71,West,277,7.0,-999.0,63,-99.99,,,0.00,weatherlink.com 1.10,2013-05-09 21:48:00,
2013-05-09 15:03:00,61.4,50.0,29.70,WSW,252,7.0,-999.0,66,-99.99,,,0.00,weatherlink.com 1.10,2013-05-09 22:03:00,
2013-05-09 15:18:00,59.6,50.0,29.70,WNW,298,7.0,-999.0,70,-99.99,,,0.00,weatherlink.com 1.10,2013-05-09 22:18:00,
2013-05-09 15:33:00,58.7,49.0,29.69,WNW,283,6.0,-999.0,71,-99.99,,,0.00,weatherlink.com 1.10,2013-05-09 22:33:00,
2013-05-09 15:48:00,58.0,49.0,29.69,WNW,285,9.0,-999.0,71,-99.99,,,0.00,weatherlink.com 1.10,2013-05-09 22:48:00,
2013-05-09 16:03:00,56.4,49.0,29.69,WSW,254,9.0,-999.0,75,-99.99,,,0.00,weatherlink.com 1.10,2013-05-09 23:03:00,
2013-05-09 16:18:00,55.3,48.0,29.68,West,261,10.0,-999.0,77,-99.99,,,0.00,weatherlink.com 1.10,2013-05-09 23:18:00,
2013-05-09 16:33:00,55.0,48.0,29.68,WNW,292,3.0,-999.0,78,-99.99,,,0.00,weatherlink.com 1.10,2013-05-09 23:33:00,
2013-05-09 16:48:00,54.5,48.0,29.68,West,264,3.0,-999.0,78,-99.99,,,0.00,weatherlink.com 1.10,2013-05-09 23:48:00,
2013-05-09 17:03:00,54.5,48.0,29.68,West,271,5.0,-999.0,79,-99.99,,,0.00,weatherlink.com 1.10,2013-05-10 00:03:00,
2013-05-09 17:18:00,55.1,49.0,29.68,WNW,283,3.0,-999.0,79,-99.99,,,0.00,weatherlink.com 1.10,2013-05-10 00:18:00,
2013-05-09 17:33:00,56.1,49.0,29.68,WSW,242,0.0,-999.0,77,-99.99,,,0.00,weatherlink.com 1.10,2013-05-10 00:33:00,
2013-05-09 17:48:00,57.4,50.0,29.67,WSW,246,0.0,-999.0,75,-99.99,,,0.00,weatherlink.com 1.10,2013-05-10 00:48:00,
2013-05-09 18:03:00,58.9,50.0,29.67,West,273,0.0,-999.0,72,-99.99,,,0.00,weatherlink.com 1.10,2013-05-10 01:03:00,
2013-05-09 18:18:00,59.0,50.0,29.68,West,269,0.0,-999.0,71,-99.99,,,0.00,weatherlink.com 1.10,2013-05-10 01:18:00,
2013-05-09 18:33:00,58.5,49.0,29.68,WSW,253,0.0,-999.0,71,-99.99,,,0.00,weatherlink.com 1.10,2013-05-10 01:33:00,
2013-05-09 18:48:00,57.2,49.0,29.68,SW,230,0.0,-999.0,73,-99.99,,,0.00,weatherlink.com 1.10,2013-05-10 01:48:00,
2013-05-09 19:03:00,55.3,48.0,29.68,SW,234,3.0,-999.0,75,-99.99,,,0.00,weatherlink.com 1.10,2013-05-10 02:03:00,
2013-05-09 19:18:00,52.5,47.0,29.69,WSW,248,5.0,-999.0,80,-99.99,,,0.00,weatherlink.com 1.10,2013-05-10 02:18:00,
2013-05-09 19:33:00,50.2,45.0,29.70,SW,216,0.0,-999.0,83,-99.99,,,0.00,weatherlink.com 1.10,2013-05-10 02:33:00,
2013-05-09 19:48:00,49.2,46.0,29.70,SSW,202,0.0,-999.0,87,-99.99,,,0.00,weatherlink.com 1.10,2013-05-10 02:48:00,
2013-05-09 20:03:00,48.1,44.0,29.70,SW,218,2.0,-999.0,87,-99.99,,,0.00,weatherlink.com 1.10,2013-05-10 03:03:00,
2013-05-09 20:18:00,46.7,44.0,29.70,South,190,0.0,-999.0,90,-99.99,,,0.00,weatherlink.com 1.10,2013-05-10 03:18:00,
2013-05-09 20:33:00,46.1,44.0,29.71,South,183,0.0,-999.0,91,-99.99,,,0.00,weatherlink.com 1.10,2013-05-10 03:33:00,
2013-05-09 20:48:00,45.5,43.0,29.71,South,180,0.0,-999.0,92,-99.99,,,0.00,weatherlink.com 1.10,2013-05-10 03:48:00,
2013-05-09 21:03:00,45.7,44.0,29.72,South,175,4.0,-999.0,92,-99.99,,,0.00,weatherlink.com 1.10,2013-05-10 04:03:00,
2013-05-09 21:18:00,45.1,43.0,29.72,East,92,0.0,-999.0,93,-99.99,,,0.00,weatherlink.com 1.10,2013-05-10 04:18:00,
2013-05-09 21:33:00,46.3,44.0,29.73,ENE,65,0.0,-999.0,93,-99.99,,,0.00,weatherlink.com 1.10,2013-05-10 04:33:00,
2013-05-09 21:48:00,45.6,44.0,29.74,SSW,206,0.0,-999.0,93,-99.99,,,0.00,weatherlink.com 1.10,2013-05-10 04:48:00,
2013-05-09 22:03:00,45.8,44.0,29.74,SSW,202,3.0,-999.0,94,-99.99,,,0.00,weatherlink.com 1.10,2013-05-10 05:03:00,
2013-05-09 22:18:00,45.7,44.0,29.73,SSE,161,0.0,-999.0,94,-99.99,,,0.00,weatherlink.com 1.10,2013-05-10 05:18:00,
2013-05-09 22:33:00,46.1,45.0,29.73,SW,217,0.0,-999.0,95,-99.99,,,0.00,weatherlink.com 1.10,2013-05-10 05:33:00,
2013-05-09 22:48:00,46.0,45.0,29.74,SSW,198,0.0,-999.0,95,-99.99,,,0.00,weatherlink.com 1.10,2013-05-10 05:48:00,
2013-05-09 23:03:00,46.9,46.0,29.74,ENE,65,0.0,-999.0,95,-99.99,,,0.00,weatherlink.com 1.10,2013-05-10 06:03:00,
2013-05-09 23:18:00,47.7,46.0,29.74,ENE,65,0.0,-999.0,95,-99.99,,,0.00,weatherlink.com 1.10,2013-05-10 06:18:00,
2013-05-09 23:33:00,46.5,45.0,29.74,South,179,0.0,-999.0,93,-99.99,,,0.00,weatherlink.com 1.10,2013-05-10 06:33:00,
2013-05-09 23:48:00,47.3,46.0,29.75,SW,214,0.0,-999.0,95,-99.99,,,0.00,weatherlink.com 1.10,2013-05-10 06:48:00,